パリ/シャルル・ド・ゴール の空港の天気 - METARとTAF

シャルル・ド・ゴール国際空港(パリ) ( LFPG / CDG ) - フランス Paris
飛行場実況気象(Metar)
観測時間02/25 09:30 CET (02/25 08:30 UTC)
風向・風速南 4m/s
視程10km以上
天気現象
なし
気温3℃
湿度75%
気圧1022hPa
METARLFPG 250830Z 18007KT CAVOK 03/M01 Q1022 NOSIG
過去の天気等 Google飛行場航空写真 Wunderground天気予報

過去48時間のMETAR

飛行場予報(TAF)
発表時間: 2/25 06:00 CET (2/25 05:00 UTC)
予報対象時間: 25日7時 CET ~ 26日13時 CET
風向・風速南南西 5m/s
視程10km以上
なし
25日13時 CET ~ 25日16時 CET に一時的に
風向・風速南南西 5m/s 瞬間風速 10m/s
26日7時 CET ~ 26日8時 CET に徐々に
全天の8割程度の雲 雲底高度 300m
全天の8割程度の雲 雲底高度 610m
26日10時 CET ~ 26日12時 CET に一時的に
天気現象弱い雨
TAF LFPG 250500Z 2506/2612 20010KT CAVOK
TEMPO 2512/2515 21010G20KT
BECMG 2606/2607 BKN010 BKN020
TEMPO 2609/2611 -RA TX10/2515Z TN00/2506Z